Time;durP1;ratioP1;P1;durP2;ratioP2;P2;SDS_P1;SDS_P2;PMS_P1;PMS_P2;Temp;Humidity;BMP_temperature;BMP_pressure;BME280_temperature;BME280_humidity;BME280_pressure;Samples;Min_cycle;Max_cycle;Signal;HPM_P1;HPM_P2
2023/01/31 00:01:23;;;;;;;50.55;28.35;;;2.50;99.90;;;;;;5052986;28;20061;-72
2023/01/31 00:03:53;;;;;;;41.85;25.60;;;2.40;99.90;;;;;;5055296;28;20070;-73
2023/01/31 00:06:28;;;;;;;41.22;26.00;;;2.40;99.90;;;;;;5054609;28;20045;-73
2023/01/31 00:08:55;;;;;;;44.03;25.88;;;2.40;99.90;;;;;;5053522;28;20025;-73
2023/01/31 00:11:23;;;;;;;43.58;25.90;;;2.30;99.90;;;;;;5055108;28;20025;-74
2023/01/31 00:13:50;;;;;;;48.63;28.20;;;2.30;99.90;;;;;;5051990;28;20032;-73
2023/01/31 00:16:16;;;;;;;50.58;29.10;;;2.30;99.90;;;;;;5054180;28;20048;-73
2023/01/31 00:18:42;;;;;;;47.70;28.83;;;2.30;99.90;;;;;;5052673;28;20024;-73
2023/01/31 00:21:14;;;;;;;52.65;28.45;;;2.30;99.90;;;;;;5054813;28;20458;-73
2023/01/31 00:23:41;;;;;;;47.50;27.30;;;2.20;99.90;;;;;;5054535;28;20029;-73
2023/01/31 00:26:13;;;;;;;45.90;24.75;;;2.20;99.90;;;;;;5054545;28;20067;-73
2023/01/31 00:28:47;;;;;;;;;;;2.20;99.90;;;;;;5054024;28;20060;-71
2023/01/31 00:31:13;;;;;;;43.97;24.50;;;2.20;99.90;;;;;;5054240;28;19915;-73
2023/01/31 00:33:41;;;;;;;37.95;21.92;;;2.10;99.90;;;;;;5054668;28;20043;-72
2023/01/31 00:36:10;;;;;;;37.17;23.20;;;2.10;99.90;;;;;;5054420;28;20111;-73
2023/01/31 00:38:36;;;;;;;41.60;21.73;;;2.10;99.90;;;;;;5054158;28;20033;-74
2023/01/31 00:41:05;;;;;;;40.75;22.63;;;2.10;99.90;;;;;;5070077;28;20056;-74
2023/01/31 00:43:32;;;;;;;43.33;24.13;;;2.10;99.90;;;;;;5054220;28;20029;-74
2023/01/31 00:45:58;;;;;;;40.05;22.55;;;2.10;99.90;;;;;;5054487;28;20037;-74
2023/01/31 00:48:25;;;;;;;38.25;21.75;;;2.10;99.90;;;;;;5058406;28;20075;-71
2023/01/31 00:50:51;;;;;;;38.10;21.67;;;2.20;99.90;;;;;;5053892;28;20064;-74
2023/01/31 00:53:22;;;;;;;37.65;21.67;;;2.10;99.90;;;;;;5053863;28;20801;-73
2023/01/31 00:55:51;;;;;;;36.22;21.73;;;2.10;99.90;;;;;;5054745;28;20040;-73
2023/01/31 00:58:18;;;;;;;33.20;19.85;;;2.10;99.90;;;;;;5069532;28;20025;-73
2023/01/31 01:00:44;;;;;;;31.30;18.40;;;2.10;99.90;;;;;;5053984;28;20453;-73
2023/01/31 01:03:11;;;;;;;32.63;19.15;;;2.10;99.90;;;;;;5052731;28;20036;-71
2023/01/31 01:05:37;;;;;;;35.47;18.85;;;2.10;99.90;;;;;;5053915;28;20032;-71
2023/01/31 01:08:03;;;;;;;31.35;18.75;;;2.10;99.90;;;;;;5054012;28;20100;-73
2023/01/31 01:10:29;;;;;;;28.65;16.75;;;2.10;99.90;;;;;;5068179;28;20392;-72
2023/01/31 01:12:55;;;;;;;27.35;15.13;;;2.10;99.90;;;;;;5053983;28;20040;-73
2023/01/31 01:15:20;;;;;;;26.48;15.10;;;2.20;99.90;;;;;;5069276;28;20029;-73
2023/01/31 01:17:46;;;;;;;25.15;14.10;;;2.30;99.90;;;;;;5069287;28;20033;-73
2023/01/31 01:20:12;;;;;;;27.80;13.75;;;2.30;99.90;;;;;;5053549;28;20132;-73
2023/01/31 01:22:38;;;;;;;25.40;14.05;;;2.40;99.90;;;;;;5069098;28;20521;-70
2023/01/31 01:25:05;;;;;;;21.80;12.18;;;2.40;99.90;;;;;;5053719;28;20028;-74
2023/01/31 01:27:31;;;;;;;24.80;13.10;;;2.40;99.90;;;;;;5069011;28;20064;-73
2023/01/31 01:29:57;;;;;;;24.40;12.85;;;2.40;99.90;;;;;;5053762;28;20017;-73
2023/01/31 01:32:23;;;;;;;23.85;12.57;;;2.50;99.90;;;;;;5053067;28;20497;-73
2023/01/31 01:34:51;;;;;;;24.13;12.60;;;2.50;99.90;;;;;;5053763;28;20472;-73
2023/01/31 01:37:20;;;;;;;24.67;12.85;;;2.40;99.90;;;;;;5051972;28;20032;-73
2023/01/31 01:39:47;;;;;;;20.90;11.05;;;2.50;99.90;;;;;;5069048;28;20461;-73
2023/01/31 01:42:18;;;;;;;21.67;11.65;;;2.50;99.90;;;;;;5068512;28;20115;-73
2023/01/31 01:44:52;;;;;;;23.38;11.32;;;2.50;99.90;;;;;;5053094;28;20040;-73
2023/01/31 01:47:27;;;;;;;24.02;10.73;;;2.60;99.90;;;;;;5051656;28;20472;-73
2023/01/31 01:49:58;;;;;;;22.05;12.57;;;2.60;99.90;;;;;;5061905;28;20119;-73
2023/01/31 01:52:27;;;;;;;19.65;10.73;;;2.60;99.90;;;;;;5053391;28;20128;-73
2023/01/31 01:54:58;;;;;;;21.15;10.20;;;2.60;99.90;;;;;;5051215;28;20108;-73
2023/01/31 01:57:31;;;;;;;21.45;10.70;;;2.60;99.90;;;;;;5052677;28;20087;-73
2023/01/31 02:00:09;;;;;;;21.00;11.23;;;2.60;99.90;;;;;;5051216;28;20178;-74
2023/01/31 02:02:42;;;;;;;20.95;12.05;;;2.60;99.90;;;;;;5052596;28;20095;-73
2023/01/31 02:05:10;;;;;;;22.50;11.43;;;2.50;99.90;;;;;;5052383;28;20021;-73
2023/01/31 02:07:36;;;;;;;21.10;10.95;;;2.50;99.90;;;;;;5051657;28;20035;-71
2023/01/31 02:10:11;;;;;;;19.95;12.13;;;2.60;99.90;;;;;;5052543;28;20021;-71
2023/01/31 02:12:37;;;;;;;21.60;10.57;;;2.70;99.90;;;;;;5052863;28;20021;-70
2023/01/31 02:15:05;;;;;;;20.20;11.02;;;2.70;99.90;;;;;;5063696;28;20416;-70
2023/01/31 02:17:30;;;;;;;17.90;10.10;;;2.70;99.90;;;;;;5051864;28;20032;-71
2023/01/31 02:20:31;;;;;;;22.50;11.23;;;2.80;99.90;;;;;;5067101;28;20504;-71
2023/01/31 02:22:58;;;;;;;17.95;9.93;;;2.80;99.90;;;;;;4975660;28;20178;-71
2023/01/31 02:25:56;;;;;;;18.63;9.68;;;2.80;99.90;;;;;;4991260;28;20113;-71
2023/01/31 02:28:44;;;;;;;19.38;9.23;;;2.90;99.90;;;;;;4933046;29;20063;-72
2023/01/31 02:31:36;;;;;;;19.60;10.95;;;3.00;99.90;;;;;;4913387;29;20036;-71
2023/01/31 02:34:31;;;;;;;20.38;10.02;;;3.00;99.90;;;;;;4840931;29;20541;-71
2023/01/31 02:37:18;;;;;;;16.85;8.88;;;3.10;99.90;;;;;;4839382;29;20490;-71
2023/01/31 02:39:56;;;;;;;17.00;8.60;;;3.10;99.90;;;;;;4839723;29;20442;-71
2023/01/31 02:42:37;;;;;;;18.23;9.40;;;3.20;99.90;;;;;;4841231;29;20121;-71
2023/01/31 02:45:42;;;;;;;17.67;9.10;;;3.20;99.90;;;;;;4838504;29;20034;-71
2023/01/31 02:48:23;;;;;;;18.60;9.45;;;3.20;99.90;;;;;;4840518;29;20177;-72
2023/01/31 02:50:57;;;;;;;17.02;8.65;;;3.30;99.90;;;;;;4839341;29;20451;-72
2023/01/31 02:53:30;;;;;;;20.23;10.35;;;3.30;99.90;;;;;;4837342;29;20092;-72
2023/01/31 02:56:13;;;;;;;17.75;9.20;;;3.30;99.90;;;;;;4831181;29;20038;-72
2023/01/31 02:58:43;;;;;;;18.40;10.45;;;3.30;99.90;;;;;;4851169;29;20484;-72
2023/01/31 03:01:14;;;;;;;18.98;10.60;;;3.30;99.90;;;;;;4910430;29;20500;-72
2023/01/31 03:03:40;;;;;;;21.10;9.80;;;3.30;99.90;;;;;;4914723;29;20036;-71
2023/01/31 03:06:22;;;;;;;20.55;9.50;;;3.40;99.90;;;;;;4932632;29;20053;-72
2023/01/31 03:09:20;;;;;;;21.92;11.63;;;3.40;99.90;;;;;;4974067;28;20076;-72
2023/01/31 03:12:17;;;;;;;19.35;10.50;;;3.40;99.90;;;;;;5031267;28;20041;-72
2023/01/31 03:15:09;;;;;;;22.08;9.45;;;3.40;99.90;;;;;;5067005;28;20029;-71
2023/01/31 03:18:00;;;;;;;17.90;10.00;;;3.40;99.90;;;;;;5050152;28;20029;-72
2023/01/31 03:20:42;;;;;;;19.23;9.88;;;3.40;99.90;;;;;;5042097;28;20053;-72
2023/01/31 03:23:18;;;;;;;18.75;9.60;;;3.50;99.90;;;;;;5048255;28;20116;-72
2023/01/31 03:25:48;;;;;;;17.50;8.18;;;3.60;99.90;;;;;;5037465;28;20029;-72
2023/01/31 03:28:19;;;;;;;22.40;9.85;;;3.70;99.90;;;;;;5056241;28;20060;-72
2023/01/31 03:30:50;;;;;;;17.23;9.23;;;3.70;99.90;;;;;;5067765;28;20017;-71
2023/01/31 03:33:23;;;;;;;16.35;7.85;;;3.70;99.90;;;;;;5050360;28;20079;-72
2023/01/31 03:35:56;;;;;;;15.73;8.63;;;3.80;99.90;;;;;;5056820;28;20028;-71
2023/01/31 03:38:31;;;;;;;15.77;8.90;;;3.90;99.90;;;;;;5053828;28;20082;-71
2023/01/31 03:41:07;;;;;;;16.60;9.32;;;3.90;99.90;;;;;;5071005;28;20033;-72
2023/01/31 03:43:47;;;;;;;19.00;9.02;;;3.90;99.90;;;;;;5059005;28;20025;-71
2023/01/31 03:46:28;;;;;;;19.23;8.98;;;4.00;99.90;;;;;;5068165;28;20025;-70
2023/01/31 03:48:56;;;;;;;17.23;9.15;;;4.00;99.90;;;;;;5042980;28;20107;-71
2023/01/31 03:51:27;;;;;;;22.85;10.38;;;4.00;99.90;;;;;;5059968;28;20079;-71
2023/01/31 03:54:00;;;;;;;19.27;9.07;;;4.00;99.90;;;;;;5057021;28;20036;-71
2023/01/31 03:56:41;;;;;;;19.20;9.32;;;4.00;99.90;;;;;;5055495;28;20388;-71
2023/01/31 03:59:15;;;;;;;16.98;9.27;;;4.00;99.90;;;;;;5053977;28;20369;-71
2023/01/31 04:01:47;;;;;;;16.33;8.23;;;4.00;99.90;;;;;;5053919;28;20033;-71
2023/01/31 04:04:36;;;;;;;20.48;9.77;;;4.10;99.90;;;;;;5054048;28;20028;-72
2023/01/31 04:07:02;;;;;;;17.10;8.85;;;4.10;99.90;;;;;;5055126;28;20032;-72
2023/01/31 04:09:29;;;;;;;17.63;9.38;;;4.10;99.90;;;;;;5053966;28;20036;-71
2023/01/31 04:12:00;;;;;;;18.98;9.20;;;4.00;99.90;;;;;;5055127;28;20028;-72
2023/01/31 04:14:26;;;;;;;17.38;8.45;;;4.10;99.90;;;;;;5054693;28;20033;-72
2023/01/31 04:16:52;;;;;;;18.63;9.30;;;4.10;99.90;;;;;;5055235;28;20033;-70
2023/01/31 04:19:18;;;;;;;19.10;8.48;;;4.00;99.90;;;;;;5054541;28;20147;-71
2023/01/31 04:21:44;;;;;;;15.68;8.50;;;4.00;99.90;;;;;;5044152;28;20498;-72
2023/01/31 04:24:11;;;;;;;18.48;9.80;;;4.00;99.90;;;;;;5045411;28;20056;-72
2023/01/31 04:26:37;;;;;;;17.20;9.07;;;4.10;99.90;;;;;;5043122;28;20029;-72
2023/01/31 04:29:03;;;;;;;17.65;7.93;;;4.10;99.90;;;;;;5036133;28;20029;-71
2023/01/31 04:31:29;;;;;;;16.00;9.02;;;4.10;99.90;;;;;;5043932;28;20072;-74
2023/01/31 04:33:56;;;;;;;19.60;8.95;;;4.10;99.90;;;;;;5045235;28;20021;-72
2023/01/31 04:36:23;;;;;;;18.38;9.27;;;4.10;99.90;;;;;;5044281;28;20021;-74
2023/01/31 04:38:49;;;;;;;15.73;7.78;;;4.00;99.90;;;;;;5045930;28;20021;-73
2023/01/31 04:41:15;;;;;;;15.18;8.50;;;4.00;99.90;;;;;;5047714;28;20094;-69
2023/01/31 04:43:41;;;;;;;18.45;8.40;;;3.90;99.90;;;;;;5044784;28;20484;-70
2023/01/31 04:46:07;;;;;;;15.60;8.10;;;3.90;99.90;;;;;;5044602;28;20026;-72
2023/01/31 04:48:33;;;;;;;16.33;8.38;;;3.90;99.90;;;;;;5042953;28;20397;-72
2023/01/31 04:50:58;;;;;;;18.58;8.93;;;3.80;99.90;;;;;;5048890;28;20036;-70
2023/01/31 04:53:24;;;;;;;15.73;8.25;;;3.80;99.90;;;;;;5046424;28;20115;-72
2023/01/31 04:55:53;;;;;;;18.95;8.48;;;3.80;99.90;;;;;;5042775;28;20021;-72
2023/01/31 04:58:19;;;;;;;18.08;9.52;;;3.70;99.90;;;;;;5044194;28;20028;-71
2023/01/31 05:00:45;;;;;;;21.35;9.63;;;3.70;99.90;;;;;;5044829;28;20033;-73
2023/01/31 05:03:11;;;;;;;19.20;8.70;;;3.70;99.90;;;;;;5043478;28;20483;-71
2023/01/31 05:05:37;;;;;;;19.23;9.88;;;3.80;99.90;;;;;;5050494;28;20039;-71
2023/01/31 05:08:03;;;;;;;19.60;9.63;;;3.80;99.90;;;;;;5053880;28;20017;-71
2023/01/31 05:10:29;;;;;;;18.15;9.07;;;3.80;99.90;;;;;;5054256;28;20075;-72
2023/01/31 05:12:55;;;;;;;17.85;8.63;;;3.80;99.90;;;;;;5054143;28;20095;-72
2023/01/31 05:15:21;;;;;;;16.33;8.57;;;3.90;99.90;;;;;;5053873;28;20029;-70
2023/01/31 05:18:01;;;;;;;17.20;8.13;;;3.90;99.90;;;;;;5053593;28;20949;-72
2023/01/31 05:20:33;;;;;;;19.38;9.90;;;4.00;99.90;;;;;;5053550;28;20150;-71
2023/01/31 05:22:59;;;;;;;21.60;9.13;;;4.00;99.90;;;;;;5053971;28;20029;-72
2023/01/31 05:25:25;;;;;;;18.42;9.02;;;4.10;99.90;;;;;;5053401;28;20032;-72
2023/01/31 05:27:52;;;;;;;19.67;9.77;;;4.00;99.90;;;;;;5040417;28;20029;-71
2023/01/31 05:30:18;;;;;;;17.63;9.38;;;4.10;99.90;;;;;;5053664;28;20087;-72
2023/01/31 05:32:47;;;;;;;15.52;6.93;;;4.10;99.90;;;;;;5053880;28;20072;-73
2023/01/31 05:35:14;;;;;;;15.05;7.43;;;4.10;99.90;;;;;;5053611;28;20028;-72
2023/01/31 05:37:43;;;;;;;18.38;8.30;;;4.20;99.90;;;;;;5053607;28;20036;-72
2023/01/31 05:40:13;;;;;;;18.42;8.02;;;4.20;99.90;;;;;;5053380;28;20083;-73
2023/01/31 05:42:39;;;;;;;16.23;8.35;;;4.20;99.90;;;;;;5053214;28;20029;-72
2023/01/31 05:45:06;;;;;;;21.58;9.68;;;4.30;99.90;;;;;;5053531;28;20419;-72
2023/01/31 05:47:32;;;;;;;17.67;8.80;;;4.20;99.90;;;;;;5052745;28;20033;-72
2023/01/31 05:49:58;;;;;;;16.45;8.95;;;4.20;99.90;;;;;;5053538;28;20155;-72
2023/01/31 05:52:24;;;;;;;19.95;10.02;;;4.20;99.90;;;;;;5053235;28;20434;-71
2023/01/31 05:54:49;;;;;;;20.25;10.45;;;4.20;99.90;;;;;;5053148;28;20170;-72
2023/01/31 05:57:15;;;;;;;25.80;9.70;;;4.20;99.90;;;;;;5052688;28;20419;-72
2023/01/31 05:59:41;;;;;;;21.27;10.77;;;4.10;99.90;;;;;;5052046;28;20041;-72
2023/01/31 06:02:10;;;;;;;19.10;10.57;;;4.20;99.90;;;;;;5052650;28;20032;-72
2023/01/31 06:04:36;;;;;;;21.48;10.40;;;4.10;99.90;;;;;;5052937;28;20367;-72
2023/01/31 06:07:02;;;;;;;21.85;11.27;;;4.00;99.90;;;;;;5053148;28;20491;-72
2023/01/31 06:09:28;;;;;;;22.33;11.82;;;4.00;99.90;;;;;;5052875;28;20021;-73
2023/01/31 06:11:54;;;;;;;20.80;11.70;;;4.00;99.90;;;;;;5053284;28;20087;-72
2023/01/31 06:14:20;;;;;;;21.23;11.02;;;3.90;99.90;;;;;;5052694;28;20472;-72
2023/01/31 06:16:46;;;;;;;20.75;10.68;;;3.90;99.90;;;;;;5053437;28;20094;-72
2023/01/31 06:19:12;;;;;;;21.23;10.68;;;3.80;99.90;;;;;;5052114;28;20439;-72
2023/01/31 06:21:38;;;;;;;22.52;11.00;;;3.80;99.90;;;;;;5052992;28;20079;-72
2023/01/31 06:24:04;;;;;;;19.75;9.55;;;3.70;99.90;;;;;;5052550;28;20021;-72
2023/01/31 06:26:29;;;;;;;18.63;10.02;;;3.60;99.90;;;;;;5052877;28;20032;-72
2023/01/31 06:28:55;;;;;;;19.85;10.75;;;3.60;99.90;;;;;;5052577;28;20486;-72
2023/01/31 06:31:21;;;;;;;20.92;11.30;;;3.60;99.90;;;;;;5052371;28;20025;-72
2023/01/31 06:33:47;;;;;;;19.85;10.35;;;3.50;99.90;;;;;;5052611;28;20032;-72
2023/01/31 06:36:13;;;;;;;18.77;10.63;;;3.40;99.90;;;;;;5052450;28;20040;-72
2023/01/31 06:38:39;;;;;;;20.25;10.23;;;3.40;99.90;;;;;;5052630;28;20059;-72
2023/01/31 06:41:04;;;;;;;24.13;11.23;;;3.40;99.90;;;;;;5052289;28;20076;-72
2023/01/31 06:43:30;;;;;;;23.17;11.45;;;3.40;99.90;;;;;;5052329;28;20035;-72
2023/01/31 06:45:56;;;;;;;20.73;10.55;;;3.40;99.90;;;;;;5052307;28;20025;-72
2023/01/31 06:48:22;;;;;;;22.35;10.80;;;3.50;99.90;;;;;;5052354;28;20483;-73
2023/01/31 06:50:47;;;;;;;18.58;9.40;;;3.60;99.90;;;;;;5052175;28;20029;-72
2023/01/31 06:53:13;;;;;;;21.60;11.27;;;3.70;99.90;;;;;;5052373;28;20472;-72
2023/01/31 06:55:39;;;;;;;20.83;10.38;;;3.70;99.90;;;;;;5051817;28;20377;-73
2023/01/31 06:58:05;;;;;;;21.15;10.43;;;3.80;99.90;;;;;;5052400;28;20116;-73
2023/01/31 07:00:30;;;;;;;22.95;10.80;;;3.90;99.90;;;;;;5051933;28;20033;-72
2023/01/31 07:02:56;;;;;;;23.45;10.10;;;4.00;99.90;;;;;;5051981;28;20419;-72
2023/01/31 07:05:22;;;;;;;17.25;9.80;;;4.00;99.90;;;;;;5051987;28;20384;-73
2023/01/31 07:07:49;;;;;;;17.85;8.55;;;4.10;99.90;;;;;;5051043;28;20426;-72
2023/01/31 07:10:16;;;;;;;22.10;10.85;;;4.10;99.90;;;;;;5051903;28;20048;-72
2023/01/31 07:12:42;;;;;;;19.83;10.60;;;4.20;99.90;;;;;;5051917;28;20041;-73
2023/01/31 07:15:09;;;;;;;19.25;9.73;;;4.30;99.90;;;;;;5051836;28;20027;-73
2023/01/31 07:17:35;;;;;;;18.83;8.75;;;4.40;99.90;;;;;;5051738;28;20028;-72
2023/01/31 07:20:01;;;;;;;16.17;8.77;;;4.50;99.90;;;;;;5051719;28;20546;-72
2023/01/31 07:22:27;;;;;;;17.83;9.20;;;4.50;99.90;;;;;;5051713;28;20036;-72
2023/01/31 07:24:53;;;;;;;22.80;9.85;;;4.50;99.90;;;;;;5051827;28;20043;-73
2023/01/31 07:27:19;;;;;;;22.50;9.23;;;4.60;99.90;;;;;;5051760;28;20495;-73
2023/01/31 07:29:45;;;;;;;20.33;10.27;;;4.70;99.90;;;;;;5051712;28;20480;-72
2023/01/31 07:32:11;;;;;;;18.65;8.15;;;4.80;99.90;;;;;;5051826;28;20029;-72
2023/01/31 07:34:37;;;;;;;15.77;9.00;;;4.80;99.90;;;;;;5051517;28;20033;-72
2023/01/31 07:37:03;;;;;;;18.30;9.05;;;4.80;99.90;;;;;;5051679;28;20151;-72
2023/01/31 07:39:28;;;;;;;18.35;8.70;;;4.90;99.90;;;;;;5051825;28;20021;-73
2023/01/31 07:41:55;;;;;;;18.58;9.45;;;4.90;99.90;;;;;;5051608;28;20037;-73
2023/01/31 07:44:23;;;;;;;19.17;9.13;;;5.10;99.90;;;;;;5050385;28;20171;-73
2023/01/31 07:46:50;;;;;;;18.67;9.00;;;5.10;99.90;;;;;;5051608;28;20482;-73
2023/01/31 07:49:15;;;;;;;15.27;7.97;;;5.10;99.90;;;;;;5051782;28;20029;-73
2023/01/31 07:51:41;;;;;;;18.13;9.15;;;5.20;99.90;;;;;;5051377;28;20116;-72
2023/01/31 07:54:10;;;;;;;19.08;8.77;;;5.30;99.90;;;;;;5051861;28;20174;-72
2023/01/31 07:56:36;;;;;;;16.85;8.00;;;5.30;99.90;;;;;;5051372;28;20025;-74
2023/01/31 07:59:02;;;;;;;22.98;8.75;;;5.40;99.90;;;;;;5051679;28;20036;-72
2023/01/31 08:04:15;;;;;;;16.13;7.38;;;5.50;99.90;;;;;;5050718;28;20108;-71
2023/01/31 08:06:43;;;;;;;13.60;7.53;;;5.60;99.90;;;;;;5051583;28;20029;-72
2023/01/31 08:09:10;;;;;;;13.50;6.47;;;5.70;99.90;;;;;;5051304;28;20107;-73
2023/01/31 08:11:36;;;;;;;12.63;5.25;;;5.80;99.90;;;;;;5051761;28;20485;-72
2023/01/31 08:14:02;;;;;;;13.48;6.40;;;5.90;99.90;;;;;;5051373;28;20100;-72
2023/01/31 08:16:28;;;;;;;10.13;4.22;;;6.10;99.90;;;;;;5051340;28;20025;-72
2023/01/31 08:18:54;;;;;;;11.52;6.28;;;6.20;99.90;;;;;;5052449;28;20049;-72
2023/01/31 08:21:20;;;;;;;11.07;4.65;;;6.30;99.90;;;;;;5054858;28;20563;-72
2023/01/31 08:23:46;;;;;;;15.00;5.38;;;6.40;99.90;;;;;;5055237;28;20040;-73
2023/01/31 08:26:13;;;;;;;8.35;3.63;;;6.60;99.90;;;;;;5054852;28;20025;-72
2023/01/31 08:28:40;;;;;;;10.27;4.72;;;6.60;99.90;;;;;;5054726;28;20025;-72
2023/01/31 08:31:11;;;;;;;11.68;4.63;;;6.70;99.90;;;;;;5054719;28;20029;-73
2023/01/31 08:33:37;;;;;;;6.50;3.30;;;6.50;99.90;;;;;;5054917;28;20021;-72
2023/01/31 08:36:26;;;;;;;8.95;4.32;;;6.20;99.90;;;;;;5054525;28;20039;-71
2023/01/31 08:38:52;;;;;;;7.00;3.47;;;6.10;99.90;;;;;;5054817;28;20107;-72
2023/01/31 08:41:20;;;;;;;8.27;3.35;;;6.10;99.90;;;;;;5054960;28;20037;-73
2023/01/31 08:43:49;;;;;;;7.60;3.50;;;6.10;99.90;;;;;;5054440;28;20384;-72
2023/01/31 08:46:15;;;;;;;8.18;4.35;;;6.20;99.90;;;;;;5054802;28;20029;-72
2023/01/31 08:48:42;;;;;;;8.50;3.63;;;6.20;99.90;;;;;;5054344;28;20028;-72
2023/01/31 08:51:10;;;;;;;7.57;3.70;;;6.30;99.90;;;;;;5054639;28;20029;-72
2023/01/31 08:53:42;;;;;;;7.80;3.70;;;6.20;99.90;;;;;;5054274;28;20025;-73
2023/01/31 08:56:09;;;;;;;6.40;3.13;;;6.30;99.90;;;;;;5054620;28;20519;-72
2023/01/31 08:58:37;;;;;;;7.30;3.47;;;6.20;99.90;;;;;;5054115;28;20052;-72
2023/01/31 09:01:06;;;;;;;3.58;2.72;;;6.30;99.90;;;;;;5054172;28;20033;-72
2023/01/31 09:03:32;;;;;;;11.85;3.50;;;6.30;99.90;;;;;;5054625;28;20021;-72
2023/01/31 09:06:04;;;;;;;8.68;3.40;;;6.30;99.90;;;;;;5054248;28;20471;-72
2023/01/31 09:08:30;;;;;;;6.28;3.08;;;6.50;99.90;;;;;;5054279;28;20017;-73
2023/01/31 09:10:59;;;;;;;11.68;4.43;;;6.60;99.90;;;;;;5053997;28;20068;-71
2023/01/31 09:13:26;;;;;;;25.40;11.13;;;6.70;99.90;;;;;;5041090;28;20167;-71
2023/01/31 09:16:09;;;;;;;20.65;10.32;;;6.60;99.90;;;;;;5053931;28;20060;-72
2023/01/31 09:18:38;;;;;;;13.13;5.07;;;6.50;99.90;;;;;;5053719;28;20037;-72
2023/01/31 09:21:16;;;;;;;11.20;5.75;;;6.40;99.90;;;;;;5054207;28;20044;-71
2023/01/31 09:23:43;;;;;;;11.25;4.85;;;6.30;99.90;;;;;;5053803;28;20028;-72
2023/01/31 09:26:11;;;;;;;7.93;3.67;;;6.30;99.90;;;;;;5053547;28;20021;-72
2023/01/31 09:28:37;;;;;;;13.43;4.95;;;6.30;99.90;;;;;;5053780;28;20074;-72
2023/01/31 09:31:05;;;;;;;14.25;5.30;;;6.40;99.90;;;;;;5052567;28;20032;-72
2023/01/31 09:33:33;;;;;;;7.32;3.28;;;6.40;99.60;;;;;;5053906;28;20487;-72
2023/01/31 09:36:05;;;;;;;10.13;4.47;;;6.50;99.90;;;;;;5053450;28;20401;-72
2023/01/31 09:38:32;;;;;;;15.68;5.07;;;6.50;99.50;;;;;;5053616;28;20391;-72
2023/01/31 09:41:00;;;;;;;7.18;3.60;;;6.50;99.60;;;;;;5053639;28;20029;-72
2023/01/31 09:43:33;;;;;;;5.00;3.10;;;6.60;99.10;;;;;;5053601;28;20480;-73
2023/01/31 09:46:03;;;;;;;10.55;4.63;;;6.60;98.10;;;;;;5053791;28;20551;-72
2023/01/31 09:48:34;;;;;;;10.88;4.72;;;6.60;98.20;;;;;;5053619;28;20044;-72
2023/01/31 09:51:01;;;;;;;14.40;5.53;;;6.70;99.40;;;;;;5053528;28;20100;-72
2023/01/31 09:53:32;;;;;;;12.48;5.00;;;6.70;99.90;;;;;;5053140;28;20029;-72
2023/01/31 09:56:27;;;;;;;9.85;4.53;;;6.70;99.30;;;;;;5053300;28;20024;-72
2023/01/31 09:59:12;;;;;;;7.45;4.43;;;6.80;97.70;;;;;;5041419;28;20036;-71
2023/01/31 10:01:56;;;;;;;9.45;4.30;;;6.70;96.40;;;;;;5053145;28;20033;-72
2023/01/31 10:04:54;;;;;;;9.15;4.28;;;6.80;97.70;;;;;;5052975;28;20037;-72
2023/01/31 10:07:37;;;;;;;15.23;4.10;;;6.90;97.90;;;;;;5052928;28;20036;-72
2023/01/31 10:10:12;;;;;;;5.00;2.50;;;7.00;97.30;;;;;;5039927;28;20041;-72
2023/01/31 10:12:49;;;;;;;5.53;2.75;;;7.00;96.10;;;;;;5053281;28;20392;-72
2023/01/31 10:15:38;;;;;;;4.53;2.25;;;7.30;96.10;;;;;;5052898;28;20036;-73
2023/01/31 10:18:23;;;;;;;7.53;3.00;;;7.20;95.20;;;;;;5053088;28;20368;-72
2023/01/31 10:20:59;;;;;;;6.88;2.63;;;7.20;95.60;;;;;;5052643;28;20056;-71
2023/01/31 10:23:40;;;;;;;8.38;3.28;;;7.10;94.80;;;;;;5052870;28;20453;-71
2023/01/31 10:26:13;;;;;;;9.60;3.00;;;7.00;95.80;;;;;;5052566;28;20020;-72
2023/01/31 10:28:47;;;;;;;10.10;3.40;;;7.10;96.00;;;;;;5052787;28;20021;-72
2023/01/31 10:31:40;;;;;;;10.77;4.15;;;7.00;95.90;;;;;;5052631;28;20013;-72
2023/01/31 10:34:09;;;;;;;10.30;4.30;;;6.90;96.00;;;;;;5052493;28;20376;-71
2023/01/31 10:36:58;;;;;;;5.18;2.95;;;7.00;95.90;;;;;;5052805;28;20028;-73
2023/01/31 10:39:33;;;;;;;9.07;4.10;;;7.20;96.10;;;;;;5040077;28;20064;-72
2023/01/31 10:42:27;;;;;;;15.95;4.47;;;7.20;95.80;;;;;;5051984;28;20041;-71
2023/01/31 10:45:00;;;;;;;9.80;4.80;;;7.50;96.40;;;;;;5003940;28;20041;-72
2023/01/31 10:47:41;;;;;;;7.53;3.13;;;7.70;96.90;;;;;;4982467;28;20069;-72
2023/01/31 10:50:27;;;;;;;9.60;3.95;;;7.70;96.40;;;;;;4988444;28;20034;-72
2023/01/31 10:53:25;;;;;;;6.93;3.90;;;7.40;99.90;;;;;;4990531;28;20031;-72
2023/01/31 10:55:51;;;;;;;8.02;3.33;;;7.10;99.90;;;;;;4991095;28;20039;-71
2023/01/31 10:58:21;;;;;;;7.13;2.88;;;7.30;99.90;;;;;;4990623;28;20101;-72
2023/01/31 11:00:47;;;;;;;9.85;3.28;;;7.30;99.90;;;;;;4990649;28;20034;-72
2023/01/31 11:03:14;;;;;;;7.30;3.20;;;7.40;99.90;;;;;;4990698;28;20049;-72
2023/01/31 11:05:53;;;;;;;11.10;3.65;;;7.40;99.90;;;;;;4990576;28;20063;-72
2023/01/31 11:08:41;;;;;;;4.60;2.40;;;7.50;99.90;;;;;;4990643;28;20038;-72
2023/01/31 11:11:13;;;;;;;9.02;3.00;;;7.50;99.90;;;;;;4990583;28;20049;-73
2023/01/31 11:13:39;;;;;;;8.05;2.65;;;7.50;99.90;;;;;;4990541;28;20034;-72
2023/01/31 11:16:11;;;;;;;13.10;3.88;;;7.30;99.90;;;;;;4990808;28;20514;-71
2023/01/31 11:18:46;;;;;;;8.38;3.08;;;7.30;99.90;;;;;;4990315;28;20030;-72
2023/01/31 11:21:21;;;;;;;9.93;3.92;;;7.30;99.90;;;;;;5003252;28;20061;-72
2023/01/31 11:23:49;;;;;;;8.30;3.38;;;7.20;99.90;;;;;;5052037;28;20105;-73
2023/01/31 11:26:29;;;;;;;10.40;4.53;;;7.30;99.90;;;;;;5051663;28;20051;-72
2023/01/31 11:28:55;;;;;;;11.38;3.78;;;7.30;99.90;;;;;;5051763;28;20021;-73
2023/01/31 11:31:33;;;;;;;8.30;3.75;;;7.30;99.90;;;;;;5051632;28;20024;-71
2023/01/31 11:34:01;;;;;;;6.72;3.45;;;7.20;99.90;;;;;;5051498;28;20488;-72
2023/01/31 11:36:41;;;;;;;5.82;2.60;;;7.20;99.90;;;;;;5051774;28;20021;-72
2023/01/31 11:39:27;;;;;;;7.15;2.72;;;7.20;99.90;;;;;;5051653;28;20074;-72
2023/01/31 11:41:53;;;;;;;5.07;3.03;;;7.20;99.90;;;;;;5051355;28;20802;-73
2023/01/31 11:44:21;;;;;;;7.28;2.90;;;7.20;99.90;;;;;;5051658;28;20017;-73
2023/01/31 11:46:51;;;;;;;6.82;3.15;;;7.10;99.90;;;;;;5051449;28;20056;-72
2023/01/31 11:49:31;;;;;;;5.47;2.45;;;7.20;99.90;;;;;;5052051;28;20092;-72
2023/01/31 11:52:11;;;;;;;8.25;2.70;;;7.50;99.90;;;;;;5051507;28;20492;-72
2023/01/31 11:54:42;;;;;;;4.88;2.28;;;7.20;99.90;;;;;;5053967;28;20418;-72
2023/01/31 11:57:34;;;;;;;7.20;2.35;;;7.10;99.90;;;;;;5058626;28;20396;-71
2023/01/31 12:00:07;;;;;;;4.13;2.33;;;7.10;99.90;;;;;;5055514;28;20049;-72
2023/01/31 12:02:40;;;;;;;4.53;2.47;;;7.00;99.90;;;;;;5055379;28;20396;-72
2023/01/31 12:05:14;;;;;;;5.75;2.65;;;7.20;99.90;;;;;;5054136;28;20454;-71
2023/01/31 12:07:43;;;;;;;7.28;2.72;;;7.30;99.90;;;;;;5051560;28;20036;-71
2023/01/31 12:10:34;;;;;;;10.00;2.88;;;7.30;99.90;;;;;;5055193;28;20024;-71
2023/01/31 12:13:22;;;;;;;11.73;4.90;;;7.40;99.90;;;;;;5055311;28;20021;-72
2023/01/31 12:15:59;;;;;;;9.57;3.65;;;7.50;99.90;;;;;;5054810;28;20047;-71
2023/01/31 12:18:39;;;;;;;9.15;4.13;;;7.60;99.90;;;;;;5054803;28;20017;-72
2023/01/31 12:21:28;;;;;;;5.78;2.78;;;7.50;99.90;;;;;;5054823;28;20040;-72
2023/01/31 12:24:14;;;;;;;5.13;2.20;;;7.50;99.90;;;;;;5055017;28;20079;-72
2023/01/31 12:26:52;;;;;;;5.22;2.10;;;7.50;99.90;;;;;;5063669;28;20052;-72
2023/01/31 12:29:34;;;;;;;3.35;1.60;;;7.50;99.90;;;;;;5045251;28;20361;-71
2023/01/31 12:32:27;;;;;;;4.53;1.92;;;7.50;99.90;;;;;;5033878;28;20403;-72
2023/01/31 12:35:26;;;;;;;4.65;2.00;;;7.40;99.90;;;;;;5058763;28;20029;-72
2023/01/31 12:38:15;;;;;;;5.88;2.92;;;7.40;99.90;;;;;;5032401;28;20374;-72
2023/01/31 12:40:44;;;;;;;3.97;2.47;;;7.40;96.80;;;;;;5037390;28;20084;-72
2023/01/31 12:43:20;;;;;;;7.10;2.53;;;7.40;96.20;;;;;;5037267;28;20449;-71
2023/01/31 12:46:10;;;;;;;5.90;2.92;;;7.50;97.60;;;;;;5034299;28;20381;-72
2023/01/31 12:48:57;;;;;;;8.90;2.70;;;7.50;96.40;;;;;;5040305;28;20381;-71
2023/01/31 12:51:44;;;;;;;3.20;2.40;;;7.50;96.90;;;;;;5051321;28;20032;-72
2023/01/31 12:54:25;;;;;;;7.60;3.17;;;7.50;96.90;;;;;;5054424;28;20060;-72
2023/01/31 12:57:32;;;;;;;6.65;2.55;;;7.20;97.90;;;;;;5054452;28;20480;-72
2023/01/31 13:00:21;;;;;;;3.85;2.22;;;7.10;97.00;;;;;;5053055;28;20480;-74
2023/01/31 13:02:57;;;;;;;4.65;1.52;;;7.00;97.60;;;;;;5044560;28;20072;-71
2023/01/31 13:05:26;;;;;;;8.27;3.28;;;6.90;96.40;;;;;;5052631;28;20036;-71
2023/01/31 13:08:20;;;;;;;9.30;2.83;;;6.80;98.20;;;;;;5054244;28;20020;-72
2023/01/31 13:11:08;;;;;;;6.38;2.63;;;6.70;98.90;;;;;;4992785;28;20069;-72
2023/01/31 13:13:46;;;;;;;5.75;3.15;;;6.60;99.90;;;;;;4992539;28;20088;-71